Time;durP1;ratioP1;P1;durP2;ratioP2;P2;SDS_P1;SDS_P2;PMS_P1;PMS_P2;Temp;Humidity;BMP_temperature;BMP_pressure;BME280_temperature;BME280_humidity;BME280_pressure;Samples;Min_cycle;Max_cycle;Signal;HPM_P1;HPM_P2
2021/07/10 00:00:12;;;;;;;10.55;3.97;;;691.40;1536.00;;;;;;5115822;28;20035;-85
2021/07/10 00:02:38;;;;;;;10.63;3.90;;;691.60;1510.40;;;;;;5112181;28;20024;-84
2021/07/10 00:05:05;;;;;;;9.38;3.53;;;691.60;1510.40;;;;;;5111968;28;20032;-83
2021/07/10 00:07:32;;;;;;;14.02;3.92;;;691.60;1510.40;;;;;;5111581;28;20074;-84
2021/07/10 00:10:04;;;;;;;6.25;3.63;;;691.30;1536.00;;;;;;5112086;28;20028;-83
2021/07/10 00:12:30;;;;;;;7.60;3.38;;;691.40;1536.00;;;;;;5111828;28;20488;-86
2021/07/10 00:14:56;;;;;;;8.82;3.78;;;691.40;1536.00;;;;;;5113285;28;20024;-84
2021/07/10 00:17:21;;;;;;;11.93;3.83;;;691.30;1536.00;;;;;;5112262;28;20024;-84
2021/07/10 00:19:52;;;;;;;11.20;4.13;;;691.30;1536.00;;;;;;5112196;28;20480;-81
2021/07/10 00:22:20;;;;;;;7.78;3.97;;;691.30;1536.00;;;;;;5112331;28;20077;-83
2021/07/10 00:24:47;;;;;;;7.93;3.13;;;691.20;1561.60;;;;;;5112089;28;20396;-85
2021/07/10 00:27:12;;;;;;;10.90;3.80;;;691.20;1561.60;;;;;;5111939;28;20066;-85
2021/07/10 00:29:38;;;;;;;9.40;3.60;;;691.20;1561.60;;;;;;5112142;28;20043;-84
2021/07/10 00:32:05;;;;;;;10.50;3.83;;;666.50;1561.60;;;;;;5111796;28;20036;-81
2021/07/10 00:34:31;;;;;;;8.95;3.70;;;666.50;1561.60;;;;;;5111855;28;20015;-83
2021/07/10 00:36:56;;;;;;;8.00;3.45;;;666.50;1561.60;;;;;;5111306;28;20110;-83
2021/07/10 00:39:22;;;;;;;9.50;4.03;;;666.30;1587.20;;;;;;5111561;28;20035;-85
2021/07/10 00:41:48;;;;;;;11.95;3.83;;;666.30;1561.60;;;;;;5111518;28;20077;-83
2021/07/10 00:44:13;;;;;;;10.55;3.80;;;666.30;1587.20;;;;;;5111600;28;20073;-85
2021/07/10 00:46:39;;;;;;;10.82;4.93;;;666.30;1587.20;;;;;;5111145;28;20117;-85
2021/07/10 00:49:05;;;;;;;9.48;4.45;;;666.30;1587.20;;;;;;5112875;28;20034;-82
2021/07/10 00:51:31;;;;;;;10.18;4.28;;;666.30;1587.20;;;;;;5111495;28;20077;-83
2021/07/10 00:53:57;;;;;;;14.45;3.92;;;666.30;1587.20;;;;;;5112628;28;20023;-84
2021/07/10 00:56:23;;;;;;;10.55;4.28;;;666.20;1587.20;;;;;;5111662;28;20430;-83
2021/07/10 00:58:50;;;;;;;10.52;3.60;;;666.20;1587.20;;;;;;5111289;28;20038;-83
2021/07/10 01:01:16;;;;;;;10.60;4.00;;;666.20;1587.20;;;;;;5111839;28;20031;-85
2021/07/10 01:03:46;;;;;;;12.15;4.40;;;666.00;1612.80;;;;;;5111642;28;20460;-84
2021/07/10 01:06:14;;;;;;;12.65;3.78;;;665.90;1612.80;;;;;;5111577;28;20062;-83
2021/07/10 01:08:41;;;;;;;9.68;3.78;;;665.90;1612.80;;;;;;5111721;28;20040;-84
2021/07/10 01:11:09;;;;;;;10.40;4.22;;;665.80;1612.80;;;;;;5111620;28;20028;-85
2021/07/10 01:13:35;;;;;;;20.38;4.88;;;666.00;1612.80;;;;;;5111471;28;20388;-82
2021/07/10 01:16:00;;;;;;;9.77;5.13;;;666.00;1612.80;;;;;;5111338;28;20040;-83
2021/07/10 01:18:26;;;;;;;8.93;3.90;;;666.00;1612.80;;;;;;5111410;28;20098;-85
2021/07/10 01:20:53;;;;;;;10.65;4.40;;;665.90;1612.80;;;;;;5114724;28;20514;-85
2021/07/10 01:23:19;;;;;;;13.65;4.72;;;665.80;1638.40;;;;;;5115101;28;20137;-85
2021/07/10 01:25:46;;;;;;;8.38;4.55;;;665.60;1664.00;;;;;;5115059;28;20027;-85
2021/07/10 01:28:17;;;;;;;9.20;4.55;;;665.60;1638.40;;;;;;5115068;28;20536;-83
2021/07/10 01:30:44;;;;;;;12.63;4.90;;;665.70;1638.40;;;;;;5115162;28;20084;-82
2021/07/10 01:33:10;;;;;;;13.00;4.78;;;665.60;1664.00;;;;;;5114827;28;20046;-85
2021/07/10 01:35:37;;;;;;;11.30;4.53;;;665.60;1664.00;;;;;;5114555;28;20145;-84
2021/07/10 01:38:05;;;;;;;16.92;4.43;;;665.60;1664.00;;;;;;5114341;28;20021;-86
2021/07/10 01:40:32;;;;;;;10.80;4.20;;;665.60;1664.00;;;;;;5142921;27;20031;-84
2021/07/10 01:43:02;;;;;;;11.95;4.47;;;640.70;1664.00;;;;;;5114068;28;20049;-87
2021/07/10 01:45:27;;;;;;;9.10;4.18;;;640.60;1689.60;;;;;;5114786;28;20442;-87
2021/07/10 01:47:53;;;;;;;6.70;4.28;;;640.40;1715.20;;;;;;5114030;28;20020;-84
2021/07/10 01:50:19;;;;;;;8.60;4.60;;;640.40;1715.20;;;;;;5114286;28;20464;-86
2021/07/10 01:52:46;;;;;;;10.52;4.80;;;640.20;1715.20;;;;;;5114176;28;20012;-85
2021/07/10 01:55:14;;;;;;;13.65;5.65;;;640.20;1740.80;;;;;;5114038;28;20024;-83
2021/07/10 01:57:46;;;;;;;6.07;4.97;;;640.20;1740.80;;;;;;5114067;28;20036;-83
2021/07/10 02:00:18;;;;;;;11.02;6.53;;;640.10;1740.80;;;;;;5115357;28;20065;-83
2021/07/10 02:02:44;;;;;;;9.57;6.63;;;640.20;1766.40;;;;;;5114162;28;20484;-82
2021/07/10 02:05:11;;;;;;;9.45;6.10;;;640.40;1740.80;;;;;;5113785;28;20035;-83
2021/07/10 02:07:38;;;;;;;7.75;5.32;;;640.20;1766.40;;;;;;5115365;27;20019;-82
2021/07/10 02:10:10;;;;;;;9.05;6.28;;;640.40;1766.40;;;;;;5113846;28;20019;-80
2021/07/10 02:12:36;;;;;;;12.60;6.55;;;640.40;1766.40;;;;;;5107425;28;20046;-81
2021/07/10 02:15:04;;;;;;;12.35;7.38;;;640.40;1766.40;;;;;;5113685;28;20104;-83
2021/07/10 02:17:30;;;;;;;11.23;6.13;;;640.20;1766.40;;;;;;5112994;27;20034;-81
2021/07/10 02:19:55;;;;;;;13.25;5.50;;;640.50;1766.40;;;;;;5111154;28;20035;-82
2021/07/10 02:22:21;;;;;;;7.55;5.53;;;640.40;1766.40;;;;;;5113093;28;20593;-81
2021/07/10 02:24:47;;;;;;;15.57;5.47;;;640.20;1792.00;;;;;;5113607;28;20030;-82
2021/07/10 02:27:13;;;;;;;14.38;6.22;;;640.20;1817.60;;;;;;5113205;28;20024;-83
2021/07/10 02:29:38;;;;;;;13.48;5.93;;;640.10;1843.20;;;;;;5113560;28;20012;-85
2021/07/10 02:32:05;;;;;;;13.05;6.47;;;640.40;1817.60;;;;;;5112432;28;20028;-84
2021/07/10 02:34:31;;;;;;;15.15;6.35;;;640.50;1817.60;;;;;;5113386;28;20081;-84
2021/07/10 02:36:56;;;;;;;12.23;6.05;;;640.50;1817.60;;;;;;5113170;27;20028;-83
2021/07/10 02:39:22;;;;;;;12.40;6.13;;;640.40;1843.20;;;;;;5113095;28;20043;-83
2021/07/10 02:41:48;;;;;;;12.57;6.32;;;640.40;1868.80;;;;;;5113380;28;20035;-82
2021/07/10 02:44:14;;;;;;;13.30;7.05;;;640.40;1894.40;;;;;;5112855;28;20108;-82
2021/07/10 02:46:40;;;;;;;9.93;7.18;;;640.20;1920.00;;;;;;5113044;28;20023;-82
2021/07/10 02:49:06;;;;;;;16.17;8.15;;;640.20;1920.00;;;;;;5112999;28;20020;-82
2021/07/10 02:51:32;;;;;;;11.40;8.35;;;640.10;1945.60;;;;;;5114468;28;20426;-84
2021/07/10 02:53:57;;;;;;;10.10;8.23;;;640.00;1971.20;;;;;;5112804;28;20012;-85
2021/07/10 02:56:24;;;;;;;12.38;7.93;;;615.30;1996.80;;;;;;5113235;28;20388;-85
2021/07/10 02:58:50;;;;;;;14.70;8.70;;;615.10;2022.40;;;;;;5112961;27;20039;-85
2021/07/10 03:01:17;;;;;;;11.65;7.32;;;614.80;2073.60;;;;;;5112841;28;20076;-85
2021/07/10 03:03:43;;;;;;;11.85;9.60;;;614.80;2073.60;;;;;;5113010;28;20015;-84
2021/07/10 03:06:09;;;;;;;16.25;9.25;;;614.70;2099.20;;;;;;5113021;28;20089;-82
2021/07/10 03:08:35;;;;;;;20.48;9.65;;;614.80;2099.20;;;;;;5112553;28;20101;-83
2021/07/10 03:11:01;;;;;;;16.42;9.30;;;614.90;2099.20;;;;;;5111911;28;20035;-83
2021/07/10 03:13:27;;;;;;;14.95;9.60;;;615.00;2073.60;;;;;;5112296;28;20439;-84
2021/07/10 03:15:53;;;;;;;14.77;8.80;;;615.00;2073.60;;;;;;5112306;28;20039;-83
2021/07/10 03:18:20;;;;;;;17.50;8.93;;;614.90;2099.20;;;;;;5112999;27;20031;-81
2021/07/10 03:20:46;;;;;;;17.20;10.05;;;614.90;2099.20;;;;;;5116189;28;20012;-82
2021/07/10 03:23:12;;;;;;;13.20;9.18;;;615.00;2099.20;;;;;;5119801;28;20069;-81
2021/07/10 03:25:38;;;;;;;14.13;10.35;;;614.80;2124.80;;;;;;5112478;28;20540;-84
2021/07/10 03:28:04;;;;;;;15.70;9.82;;;614.90;2099.20;;;;;;5112560;28;20028;-83
2021/07/10 03:30:30;;;;;;;13.88;9.48;;;614.90;2124.80;;;;;;5112466;28;20047;-84
2021/07/10 03:32:56;;;;;;;14.07;9.93;;;614.80;2124.80;;;;;;5112321;27;20480;-85
2021/07/10 03:35:22;;;;;;;15.90;10.23;;;614.80;2124.80;;;;;;5112282;28;20016;-84
2021/07/10 03:37:50;;;;;;;18.52;9.60;;;614.70;2124.80;;;;;;5111990;28;20039;-84
2021/07/10 03:40:22;;;;;;;18.17;9.95;;;640.00;2124.80;;;;;;5112504;28;20516;-83
2021/07/10 03:42:48;;;;;;;15.73;9.75;;;614.90;2099.20;;;;;;5111599;28;20035;-82
2021/07/10 03:45:15;;;;;;;11.20;9.20;;;614.80;2150.40;;;;;;5112092;28;20108;-83
2021/07/10 03:47:41;;;;;;;16.48;10.25;;;614.80;2150.40;;;;;;5112157;28;20054;-83
2021/07/10 03:50:10;;;;;;;16.27;10.82;;;614.70;2150.40;;;;;;5112106;28;20481;-83
2021/07/10 03:52:36;;;;;;;15.32;10.45;;;614.70;2150.40;;;;;;5112213;28;20112;-84
2021/07/10 03:55:06;;;;;;;13.40;9.93;;;614.80;2150.40;;;;;;5111797;28;20026;-84
2021/07/10 03:57:31;;;;;;;12.52;10.05;;;614.80;2150.40;;;;;;5113034;28;20035;-84
2021/07/10 03:59:57;;;;;;;14.02;10.35;;;614.90;2150.40;;;;;;5111800;28;20016;-84
2021/07/10 04:02:23;;;;;;;16.83;10.02;;;614.90;2150.40;;;;;;5111675;28;20023;-84
2021/07/10 04:04:49;;;;;;;13.18;10.30;;;614.80;2150.40;;;;;;5111650;28;20114;-83
2021/07/10 04:07:15;;;;;;;15.85;9.65;;;615.00;2124.80;;;;;;5112149;28;20031;-83
2021/07/10 04:09:40;;;;;;;18.10;10.35;;;615.10;2124.80;;;;;;5111740;28;20030;-84
2021/07/10 04:12:06;;;;;;;14.63;10.68;;;615.10;2124.80;;;;;;5112089;28;20016;-85
2021/07/10 04:14:35;;;;;;;14.55;10.43;;;615.10;2099.20;;;;;;5111248;28;20476;-85
2021/07/10 04:17:04;;;;;;;15.75;9.70;;;615.20;2099.20;;;;;;5111614;28;20050;-85
2021/07/10 04:19:30;;;;;;;15.40;10.20;;;615.20;2099.20;;;;;;5112974;28;20042;-88
2021/07/10 04:21:56;;;;;;;15.82;11.00;;;640.00;2099.20;;;;;;5111751;28;20012;-88
2021/07/10 04:24:22;;;;;;;12.15;8.98;;;615.30;2099.20;;;;;;5112030;28;20028;-88
2021/07/10 04:26:47;;;;;;;13.15;8.95;;;640.00;2073.60;;;;;;5111762;28;20042;-84
2021/07/10 04:29:13;;;;;;;14.80;10.70;;;640.00;2099.20;;;;;;5111822;28;20480;-86
2021/07/10 04:31:39;;;;;;;14.40;9.88;;;640.10;2099.20;;;;;;5111771;28;20027;-83
2021/07/10 04:34:05;;;;;;;18.45;11.23;;;640.10;2099.20;;;;;;5111858;28;20024;-84
2021/07/10 04:36:30;;;;;;;18.30;10.15;;;640.10;2099.20;;;;;;5111630;28;20552;-86
2021/07/10 04:38:56;;;;;;;12.77;9.40;;;640.20;2073.60;;;;;;5111596;28;20047;-84
2021/07/10 04:41:22;;;;;;;15.40;10.15;;;640.30;2073.60;;;;;;5111388;28;20023;-83
2021/07/10 04:43:48;;;;;;;15.80;9.68;;;640.20;2073.60;;;;;;5111031;28;20527;-85
2021/07/10 04:46:13;;;;;;;16.73;9.85;;;640.40;2073.60;;;;;;5111753;28;20027;-84
2021/07/10 04:48:39;;;;;;;18.50;9.73;;;640.50;2073.60;;;;;;5111259;28;20059;-84
2021/07/10 04:51:05;;;;;;;15.43;8.88;;;640.50;2073.60;;;;;;5110935;28;20411;-81
2021/07/10 04:53:31;;;;;;;15.68;9.32;;;640.50;2048.00;;;;;;5112019;28;20385;-83
2021/07/10 04:55:56;;;;;;;12.45;9.27;;;640.60;2048.00;;;;;;5115133;28;20035;-83
2021/07/10 04:58:22;;;;;;;11.95;8.77;;;640.60;2048.00;;;;;;5115696;28;20500;-83
2021/07/10 05:00:49;;;;;;;14.07;9.82;;;640.60;2048.00;;;;;;5115513;28;20047;-82
2021/07/10 05:03:15;;;;;;;15.32;9.43;;;640.60;2048.00;;;;;;5115446;28;20118;-83
2021/07/10 05:05:41;;;;;;;13.73;8.63;;;640.70;2048.00;;;;;;5115391;28;20027;-82
2021/07/10 05:08:08;;;;;;;16.17;8.63;;;640.80;2048.00;;;;;;5115527;28;20081;-84
2021/07/10 05:10:34;;;;;;;14.00;8.65;;;640.60;2048.00;;;;;;5115384;28;20111;-84
2021/07/10 05:13:00;;;;;;;12.38;8.90;;;640.80;2048.00;;;;;;5115289;28;20081;-83
2021/07/10 05:15:25;;;;;;;12.15;8.23;;;640.90;2048.00;;;;;;5114968;28;20023;-82
2021/07/10 05:17:51;;;;;;;14.50;9.52;;;640.90;2022.40;;;;;;5115271;28;20523;-84
2021/07/10 05:20:17;;;;;;;19.08;9.25;;;640.90;2022.40;;;;;;5115098;28;20019;-83
2021/07/10 05:22:42;;;;;;;12.60;9.07;;;640.90;2022.40;;;;;;5115291;28;20438;-84
2021/07/10 05:25:10;;;;;;;14.60;9.02;;;640.90;1996.80;;;;;;5114971;28;20055;-83
2021/07/10 05:27:36;;;;;;;15.93;8.52;;;640.70;2022.40;;;;;;5116471;28;20020;-84
2021/07/10 05:30:08;;;;;;;11.20;8.20;;;640.70;1996.80;;;;;;5114993;28;20023;-84
2021/07/10 05:32:34;;;;;;;14.57;9.05;;;640.90;1996.80;;;;;;5110125;28;20058;-82
2021/07/10 05:35:00;;;;;;;19.70;13.77;;;640.90;1971.20;;;;;;5114921;28;20074;-84
2021/07/10 05:37:25;;;;;;;11.65;7.65;;;665.60;1996.80;;;;;;5114891;28;20023;-85
2021/07/10 05:39:51;;;;;;;13.38;8.18;;;665.60;1971.20;;;;;;5115873;28;20027;-84
2021/07/10 05:42:17;;;;;;;14.48;9.77;;;665.70;1996.80;;;;;;5114986;28;20027;-83
2021/07/10 05:44:42;;;;;;;10.85;7.50;;;665.70;1971.20;;;;;;5114699;28;20508;-86
2021/07/10 05:47:08;;;;;;;10.88;7.55;;;665.80;1971.20;;;;;;5114548;28;20153;-85
2021/07/10 05:49:34;;;;;;;12.60;7.03;;;665.90;1971.20;;;;;;5114722;27;20485;-84
2021/07/10 05:52:00;;;;;;;10.82;7.32;;;666.00;1945.60;;;;;;5114359;28;20027;-82
2021/07/10 05:54:26;;;;;;;16.02;8.10;;;666.00;1920.00;;;;;;5114706;28;20028;-82
2021/07/10 05:56:52;;;;;;;11.95;7.95;;;666.20;1920.00;;;;;;5114169;28;20030;-83
2021/07/10 05:59:18;;;;;;;12.80;7.60;;;666.30;1920.00;;;;;;5114492;28;20058;-83
2021/07/10 06:01:43;;;;;;;13.43;6.82;;;666.30;1920.00;;;;;;5114034;28;20019;-82
2021/07/10 06:04:09;;;;;;;11.57;6.75;;;666.40;1894.40;;;;;;5114270;28;20035;-82
2021/07/10 06:06:35;;;;;;;12.13;7.20;;;666.50;1894.40;;;;;;5114180;28;20084;-83
2021/07/10 06:09:00;;;;;;;10.98;8.75;;;666.50;1868.80;;;;;;5113980;28;20059;-84
2021/07/10 06:11:26;;;;;;;9.15;6.60;;;666.50;1868.80;;;;;;5115625;28;20030;-81
2021/07/10 06:13:52;;;;;;;9.60;6.38;;;691.30;1868.80;;;;;;5113965;28;20027;-82
2021/07/10 06:16:18;;;;;;;9.95;6.78;;;691.40;1843.20;;;;;;5115426;28;20032;-83
2021/07/10 06:18:43;;;;;;;10.68;6.53;;;691.20;1868.80;;;;;;5114137;28;20404;-85
2021/07/10 06:21:09;;;;;;;13.52;7.57;;;691.40;1843.20;;;;;;5115250;28;20062;-82
2021/07/10 06:23:35;;;;;;;13.95;6.90;;;691.40;1843.20;;;;;;5113878;28;20111;-86
2021/07/10 06:26:01;;;;;;;8.50;6.65;;;691.40;1817.60;;;;;;5115103;27;20035;-81
2021/07/10 06:28:26;;;;;;;11.30;6.45;;;691.40;1843.20;;;;;;5114749;28;20035;-85
2021/07/10 06:30:52;;;;;;;11.55;6.85;;;691.40;1843.20;;;;;;5113446;28;20161;-83
2021/07/10 06:33:18;;;;;;;16.80;6.88;;;691.50;1843.20;;;;;;5114047;28;20031;-82
2021/07/10 06:35:44;;;;;;;10.02;6.80;;;691.60;1843.20;;;;;;5113401;28;20024;-80
2021/07/10 06:38:09;;;;;;;10.15;7.13;;;691.60;1843.20;;;;;;5113720;28;20032;-84
2021/07/10 06:40:35;;;;;;;11.68;7.32;;;691.70;1843.20;;;;;;5114576;28;20477;-85
2021/07/10 06:43:01;;;;;;;8.32;6.35;;;691.80;1843.20;;;;;;5114447;28;20032;-83
2021/07/10 06:45:27;;;;;;;10.77;7.38;;;691.80;1817.60;;;;;;5113026;28;20499;-81
2021/07/10 06:47:55;;;;;;;13.80;7.28;;;692.00;1843.20;;;;;;5116984;28;20091;-82
2021/07/10 06:50:21;;;;;;;9.93;6.40;;;716.80;1843.20;;;;;;5119006;28;20058;-82
2021/07/10 06:52:48;;;;;;;15.55;7.63;;;692.10;1817.60;;;;;;5115586;28;20031;-81
2021/07/10 06:55:15;;;;;;;10.40;8.05;;;716.80;1817.60;;;;;;5113155;28;20024;-83
2021/07/10 06:57:41;;;;;;;12.68;7.85;;;716.80;1817.60;;;;;;5112997;28;20074;-83
2021/07/10 07:00:12;;;;;;;11.90;7.13;;;716.90;1817.60;;;;;;5113149;28;20020;-83
2021/07/10 07:02:38;;;;;;;17.25;7.70;;;716.90;1843.20;;;;;;5112826;28;20052;-83
2021/07/10 07:05:05;;;;;;;9.63;7.03;;;716.90;1817.60;;;;;;5113105;28;20020;-83
2021/07/10 07:07:31;;;;;;;15.57;8.00;;;717.20;1792.00;;;;;;5112880;28;20047;-84
2021/07/10 07:09:57;;;;;;;16.42;9.43;;;717.40;1792.00;;;;;;5113894;28;20035;-85
2021/07/10 07:12:23;;;;;;;14.88;7.18;;;717.50;1792.00;;;;;;5112875;28;20024;-83
2021/07/10 07:14:49;;;;;;;12.07;7.53;;;717.60;1740.80;;;;;;5113481;28;20404;-89
2021/07/10 07:17:15;;;;;;;13.90;7.72;;;717.60;1766.40;;;;;;5112939;28;20023;-89
2021/07/10 07:19:40;;;;;;;11.60;7.38;;;717.60;1740.80;;;;;;5113598;28;20485;-88
2021/07/10 07:22:06;;;;;;;16.45;9.15;;;717.70;1740.80;;;;;;5113981;27;20441;-89
2021/07/10 07:24:32;;;;;;;12.05;7.18;;;742.40;1766.40;;;;;;5113468;27;20035;-89
2021/07/10 07:26:58;;;;;;;11.50;7.22;;;717.70;1740.80;;;;;;5113367;28;20027;-90
2021/07/10 07:29:24;;;;;;;14.88;7.57;;;742.40;1740.80;;;;;;5113267;28;20027;-87
2021/07/10 07:31:49;;;;;;;9.70;7.60;;;742.60;1715.20;;;;;;5113327;28;20023;-84
2021/07/10 07:34:15;;;;;;;11.48;7.53;;;742.60;1740.80;;;;;;5112765;28;20030;-84
2021/07/10 07:36:41;;;;;;;14.80;7.60;;;742.80;1715.20;;;;;;5112834;27;20031;-84
2021/07/10 07:39:07;;;;;;;12.30;7.43;;;742.90;1715.20;;;;;;5112784;28;20047;-88
2021/07/10 07:41:38;;;;;;;14.98;8.32;;;743.00;1689.60;;;;;;5112690;28;20016;-84
2021/07/10 07:44:05;;;;;;;11.10;8.38;;;742.90;1689.60;;;;;;5112189;28;20512;-87
2021/07/10 07:46:31;;;;;;;11.85;7.45;;;742.90;1664.00;;;;;;5111855;28;20027;-86
2021/07/10 07:48:57;;;;;;;17.02;7.75;;;742.90;1689.60;;;;;;5112413;28;20032;-85
2021/07/10 07:51:23;;;;;;;13.30;7.63;;;743.00;1715.20;;;;;;5112170;28;20380;-85
2021/07/10 07:53:49;;;;;;;15.23;8.00;;;742.90;1689.60;;;;;;5112701;28;20038;-89
2021/07/10 07:56:15;;;;;;;10.80;7.53;;;743.00;1715.20;;;;;;5112294;28;20465;-90
2021/07/10 07:58:41;;;;;;;11.82;7.72;;;743.00;1689.60;;;;;;5112146;28;20118;-86
2021/07/10 08:01:11;;;;;;;13.85;7.60;;;743.10;1689.60;;;;;;5111644;28;20152;-90
2021/07/10 08:03:37;;;;;;;14.50;7.57;;;743.30;1664.00;;;;;;5112732;28;20040;-85
2021/07/10 08:06:04;;;;;;;11.27;7.03;;;768.10;1612.80;;;;;;5111690;28;20020;-84
2021/07/10 08:08:30;;;;;;;9.93;6.93;;;768.10;1587.20;;;;;;5111877;27;20035;-85
2021/07/10 08:10:56;;;;;;;13.88;9.00;;;768.40;1561.60;;;;;;5111702;28;20026;-85
2021/07/10 08:13:22;;;;;;;12.80;10.98;;;768.60;1587.20;;;;;;5112051;28;20044;-83
2021/07/10 08:15:48;;;;;;;10.80;6.78;;;768.60;1536.00;;;;;;5111730;28;20027;-85
2021/07/10 08:18:15;;;;;;;9.98;6.70;;;768.50;1561.60;;;;;;5111125;28;20100;-86
2021/07/10 08:20:41;;;;;;;8.50;6.55;;;768.60;1561.60;;;;;;5111395;28;20042;-89
2021/07/10 08:23:07;;;;;;;11.40;6.65;;;768.30;1561.60;;;;;;5112066;28;20477;-86
2021/07/10 08:25:33;;;;;;;12.48;6.75;;;768.30;1536.00;;;;;;5111665;28;20043;-86
2021/07/10 08:27:59;;;;;;;10.35;6.55;;;768.10;1561.60;;;;;;5112357;28;20482;-84
2021/07/10 08:30:26;;;;;;;8.02;6.32;;;768.00;1561.60;;;;;;5115717;28;20079;-90
2021/07/10 08:32:51;;;;;;;9.27;6.10;;;768.10;1561.60;;;;;;5115064;28;20031;-90
2021/07/10 08:35:19;;;;;;;12.75;7.38;;;768.10;1561.60;;;;;;5115840;28;20476;-87
2021/07/10 08:37:46;;;;;;;8.50;6.38;;;768.20;1587.20;;;;;;5115769;28;20032;-85
2021/07/10 08:40:13;;;;;;;13.40;6.50;;;768.20;1510.40;;;;;;5113061;28;20036;-81
2021/07/10 08:42:39;;;;;;;10.30;6.35;;;768.50;1561.60;;;;;;5116287;27;20034;-86
2021/07/10 08:45:09;;;;;;;10.23;6.15;;;768.60;1484.80;;;;;;5117154;28;20056;-81
2021/07/10 08:47:41;;;;;;;10.93;6.20;;;768.70;1433.60;;;;;;5127134;28;20024;-82
2021/07/10 08:50:10;;;;;;;12.15;6.13;;;768.90;1433.60;;;;;;5123610;28;20495;-92
2021/07/10 08:52:36;;;;;;;10.00;6.07;;;768.70;1433.60;;;;;;5115856;28;20027;-82
2021/07/10 08:55:12;;;;;;;8.48;6.25;;;768.90;1459.20;;;;;;5115387;28;20314;-83
2021/07/10 08:57:38;;;;;;;;;;;768.90;1484.80;;;;;;5115902;28;20028;-90
2021/07/10 09:00:32;;;;;;;10.90;6.30;;;768.70;1459.20;;;;;;5115506;28;20001;-84
2021/07/10 09:02:58;;;;;;;9.93;6.05;;;793.70;1484.80;;;;;;5110920;28;20032;-85
2021/07/10 09:05:25;;;;;;;10.88;6.10;;;793.70;1484.80;;;;;;5077327;28;20032;-84
2021/07/10 09:08:12;;;;;;;11.13;6.55;;;793.80;1484.80;;;;;;5077421;28;20055;-85
2021/07/10 09:10:40;;;;;;;12.20;6.60;;;794.10;1459.20;;;;;;5077291;28;20028;-90
2021/07/10 09:13:06;;;;;;;10.13;6.03;;;794.30;1433.60;;;;;;5077114;28;20028;-84
2021/07/10 09:15:32;;;;;;;16.33;7.30;;;794.30;1433.60;;;;;;5077024;28;20111;-83
2021/07/10 09:17:58;;;;;;;11.25;7.03;;;794.50;1408.00;;;;;;5076776;28;20032;-82
2021/07/10 09:20:26;;;;;;;12.88;6.65;;;794.40;1408.00;;;;;;5076973;28;20028;-84
2021/07/10 09:22:53;;;;;;;11.18;6.97;;;794.50;1408.00;;;;;;5076149;28;20040;-87
2021/07/10 09:25:32;;;;;;;10.25;7.18;;;819.30;1408.00;;;;;;5077147;28;20111;-85
2021/07/10 09:28:00;;;;;;;13.32;6.18;;;819.40;1382.40;;;;;;5076945;28;20043;-83
2021/07/10 09:30:37;;;;;;;16.85;7.28;;;819.60;1356.80;;;;;;5077071;28;20059;-83
2021/07/10 09:33:13;;;;;;;12.98;6.60;;;819.70;1382.40;;;;;;5076356;28;20119;-84
2021/07/10 09:36:00;;;;;;;12.20;6.45;;;819.80;1331.20;;;;;;5077122;28;20176;-84
2021/07/10 09:38:34;;;;;;;15.85;6.43;;;819.70;1331.20;;;;;;5076635;28;20516;-84
2021/07/10 09:41:02;;;;;;;9.65;5.47;;;819.90;1356.80;;;;;;5093371;28;20028;-83
2021/07/10 09:43:31;;;;;;;12.48;7.07;;;820.10;1331.20;;;;;;5094132;28;20508;-87
2021/07/10 09:45:58;;;;;;;13.77;6.05;;;820.10;1331.20;;;;;;5094789;28;20470;-86
2021/07/10 09:48:30;;;;;;;14.13;6.50;;;844.80;1382.40;;;;;;5094367;28;20496;-86
2021/07/10 09:51:18;;;;;;;9.15;5.85;;;844.90;1331.20;;;;;;5093954;28;20074;-86
2021/07/10 09:53:58;;;;;;;10.98;6.18;;;845.00;1356.80;;;;;;5090632;28;20576;-87
2021/07/10 09:56:25;;;;;;;8.45;6.03;;;844.90;1331.20;;;;;;5056109;28;20074;-87
2021/07/10 09:58:50;;;;;;;10.43;6.65;;;845.00;1331.20;;;;;;5056217;28;20060;-90
2021/07/10 10:01:35;;;;;;;9.13;7.28;;;844.90;1356.80;;;;;;5064102;28;20055;-84
2021/07/10 10:04:20;;;;;;;9.40;6.13;;;820.10;1331.20;;;;;;5076317;28;20126;-87
2021/07/10 10:06:45;;;;;;;12.68;6.60;;;819.80;1331.20;;;;;;5075930;28;20264;-86
2021/07/10 10:09:22;;;;;;;15.13;7.28;;;819.90;1331.20;;;;;;5076539;28;20026;-84
2021/07/10 10:11:59;;;;;;;10.68;6.53;;;820.10;1305.60;;;;;;5075971;28;20047;-84
2021/07/10 10:14:30;;;;;;;14.85;6.80;;;844.90;1356.80;;;;;;5076219;28;20062;-84
2021/07/10 10:16:56;;;;;;;8.30;6.22;;;844.90;1356.80;;;;;;5076128;28;20088;-87
2021/07/10 10:19:28;;;;;;;10.57;6.32;;;844.90;1331.20;;;;;;5075794;28;20044;-86
2021/07/10 10:21:58;;;;;;;15.57;6.18;;;845.00;1331.20;;;;;;5076179;28;20024;-85
2021/07/10 10:24:30;;;;;;;13.68;6.93;;;844.90;1331.20;;;;;;5075962;28;20031;-90
2021/07/10 10:26:57;;;;;;;19.23;7.18;;;820.10;1331.20;;;;;;5092986;28;20016;-87
2021/07/10 10:29:25;;;;;;;8.52;6.32;;;820.10;1331.20;;;;;;5075778;28;20047;-89
2021/07/10 10:31:52;;;;;;;8.50;6.90;;;820.10;1331.20;;;;;;5112518;28;20079;-79
2021/07/10 10:34:19;;;;;;;11.43;6.07;;;820.10;1331.20;;;;;;5114550;27;20034;-86
2021/07/10 10:36:47;;;;;;;11.00;7.40;;;820.10;1331.20;;;;;;5113685;28;20024;-79
2021/07/10 10:39:23;;;;;;;11.57;6.55;;;819.90;1331.20;;;;;;5113306;28;20119;-87
2021/07/10 10:41:58;;;;;;;9.23;5.78;;;819.80;1331.20;;;;;;5113770;28;20019;-85
2021/07/10 10:44:32;;;;;;;24.05;6.68;;;819.80;1356.80;;;;;;5101389;28;20078;-80
2021/07/10 10:46:57;;;;;;;8.90;5.55;;;819.80;1305.60;;;;;;5101531;28;20054;-83
2021/07/10 10:49:35;;;;;;;10.90;6.80;;;819.80;1305.60;;;;;;5113273;28;20087;-82
2021/07/10 10:52:43;;;;;;;11.45;6.60;;;819.90;1305.60;;;;;;5095238;28;20523;-80
2021/07/10 10:55:14;;;;;;;9.85;5.97;;;844.90;1305.60;;;;;;5095090;28;20119;-84
2021/07/10 10:57:54;;;;;;;6.97;6.13;;;845.10;1280.00;;;;;;5103730;28;20028;-80
2021/07/10 11:00:23;;;;;;;8.90;6.18;;;845.20;1280.00;;;;;;5096666;28;20027;-81
2021/07/10 11:02:49;;;;;;;13.63;6.38;;;845.00;1305.60;;;;;;5110306;28;20031;-85
2021/07/10 11:05:15;;;;;;;7.15;6.28;;;845.30;1280.00;;;;;;5110190;28;20453;-84
2021/07/10 11:07:41;;;;;;;12.88;6.13;;;845.60;1254.40;;;;;;5111545;27;20039;-85
2021/07/10 11:10:17;;;;;;;10.02;6.18;;;845.70;1254.40;;;;;;5112425;28;20020;-81
2021/07/10 11:12:58;;;;;;;11.02;6.15;;;845.70;1254.40;;;;;;5094966;28;20031;-81
2021/07/10 11:15:27;;;;;;;8.75;5.93;;;845.70;1228.80;;;;;;5100442;28;20073;-84
2021/07/10 11:17:57;;;;;;;11.38;6.13;;;870.50;1203.20;;;;;;5103606;28;20083;-80
2021/07/10 11:20:44;;;;;;;10.25;5.43;;;870.60;1203.20;;;;;;5098390;28;20023;-82
2021/07/10 11:23:27;;;;;;;8.82;5.35;;;870.80;1177.60;;;;;;5112950;28;20080;-85
2021/07/10 11:25:55;;;;;;;11.95;4.90;;;870.90;1177.60;;;;;;5100296;28;20043;-84
2021/07/10 11:28:27;;;;;;;14.23;6.22;;;871.00;1126.40;;;;;;5113139;28;20036;-82
2021/07/10 11:30:56;;;;;;;11.15;5.53;;;870.90;1177.60;;;;;;5112551;28;20477;-88
2021/07/10 11:33:56;;;;;;;5.35;4.32;;;871.00;1152.00;;;;;;5112432;28;20066;-88
2021/07/10 11:36:31;;;;;;;8.25;4.97;;;871.10;1100.80;;;;;;5112592;28;20068;-82
2021/07/10 11:38:57;;;;;;;9.38;4.47;;;871.20;1075.20;;;;;;5113946;28;20042;-82
2021/07/10 11:41:32;;;;;;;6.55;4.38;;;871.20;1049.60;;;;;;5112030;28;20043;-88
2021/07/10 11:44:22;;;;;;;7.87;4.83;;;871.30;1075.20;;;;;;5113726;28;20123;-82
2021/07/10 11:46:57;;;;;;;9.98;4.60;;;871.20;1100.80;;;;;;5046052;28;20032;-88
2021/07/10 11:49:40;;;;;;;5.80;4.63;;;871.20;1100.80;;;;;;5070895;28;20154;-81
2021/07/10 11:52:07;;;;;;;10.38;5.25;;;871.10;1049.60;;;;;;5054199;28;20086;-87
2021/07/10 11:54:36;;;;;;;9.65;5.32;;;871.30;1075.20;;;;;;5054431;28;20413;-82
2021/07/10 11:57:04;;;;;;;8.02;5.15;;;870.60;1152.00;;;;;;5053493;28;20486;-82
2021/07/10 11:59:33;;;;;;;6.15;4.63;;;870.80;1100.80;;;;;;5048682;28;20041;-84
2021/07/10 12:02:20;;;;;;;10.55;5.72;;;871.10;1100.80;;;;;;5045024;28;20406;-85
2021/07/10 12:05:08;;;;;;;8.18;5.28;;;871.20;1075.20;;;;;;5052508;28;20040;-82
2021/07/10 12:07:36;;;;;;;7.40;5.40;;;871.10;1075.20;;;;;;5052812;28;20035;-79
2021/07/10 12:10:06;;;;;;;11.80;5.75;;;871.20;1100.80;;;;;;5052037;28;20092;-79
2021/07/10 12:12:42;;;;;;;11.40;5.57;;;871.30;1075.20;;;;;;5051934;28;20023;-80
2021/07/10 12:15:16;;;;;;;9.30;5.13;;;871.30;1100.80;;;;;;5057020;28;20025;-80